Main page
METAR-TAF:

METAR-TAF

Airports :

Itaituba Airport

Itaituba, Pará, Brazil

latitude: 04-15S, longitude: 056-00W, elevation: 34 m

Current weather observation

The report was made 10 hours and 36 minutes ago, at 21:00 UTC
Wind 4 kt from the South/Southeast
Temperature 31°C
Humidity 71%
Pressure 1006 hPa
Visibility 10 km or more
Few clouds at a height of 2300 ft

METAR: SBIH 182100Z 16004KT 9999 FEW023 31/25 Q1006

Time: 04:36 (07:36 UTC)

Forecast

The report was made 3 hours and 36 minutes ago, at 04:00 UTC
Forecast valid from 19 at 06 UTC to 19 at 18 UTC
Wind 7 kt from the Southeast
Visibility 10 km or more
Scattered clouds at a height of 1200 ft
Becoming
from 19 at 12 UTC to 19 at 14 UTC
Scattered clouds at a height of 1800 ft
Becoming
from 19 at 15 UTC to 19 at 16 UTC
Scattered clouds at a height of 2200 ft
Few clouds at a height of 2700 ft, Towering cumulus.

TAF: SBIH 190400Z 1906/1918 13007KT 9999 SCT012 TN23/1907Z TX33/1917Z BECMG 1912/1914 SCT018 BECMG 1915/1916 SCT022 FEW027TCU RMK PEM

Weather observations and forecasts of more than 4000 airports (METAR and TAF reports).

The available stations are represented by yellow and red dots on the map.

Hover mouse over dot to see the name of the station.

Then click to see weather observations and forecasts.

To change the map : click on the green buttons with a black cross to zoom in, on the green button with a dash to zoom out, or on the green arrows for adjacent maps.


METAR-TAF: